Time;durP1;ratioP1;P1;durP2;ratioP2;P2;SDS_P1;SDS_P2;PMS_P1;PMS_P2;Temp;Humidity;BMP_temperature;BMP_pressure;BME280_temperature;BME280_humidity;BME280_pressure;Samples;Min_cycle;Max_cycle;Signal;HPM_P1;HPM_P2
2022/11/09 00:00:46;;;;;;;7.07;6.37;;;11.00;40.80;;;;;;10381580;28;20233;-71
2022/11/09 00:05:56;;;;;;;7.20;6.30;;;11.00;40.80;;;;;;10382232;28;20230;-71
2022/11/09 00:11:03;;;;;;;6.43;5.83;;;10.90;40.70;;;;;;10378178;28;20229;-71
2022/11/09 00:16:09;;;;;;;8.70;6.80;;;10.90;40.70;;;;;;10381500;28;20234;-71
2022/11/09 00:21:14;;;;;;;6.87;6.13;;;10.90;40.70;;;;;;10375987;28;20229;-70
2022/11/09 00:26:19;;;;;;;8.27;7.30;;;10.90;40.70;;;;;;10381867;28;20718;-71
2022/11/09 00:31:24;;;;;;;8.67;7.27;;;10.80;40.60;;;;;;10383173;28;20229;-70
2022/11/09 00:36:29;;;;;;;8.53;7.47;;;10.80;40.60;;;;;;10379426;28;20712;-72
2022/11/09 00:41:33;;;;;;;7.70;6.70;;;10.70;40.50;;;;;;10378509;28;20237;-72
2022/11/09 00:46:37;;;;;;;6.50;5.57;;;10.70;40.50;;;;;;10381065;28;20280;-71
2022/11/09 00:51:40;;;;;;;6.37;5.50;;;10.60;40.50;;;;;;10378293;28;20662;-70
2022/11/09 00:56:44;;;;;;;6.00;4.90;;;10.60;40.50;;;;;;10390457;28;20234;-70
2022/11/09 01:01:48;;;;;;;4.73;4.33;;;10.60;40.50;;;;;;10386470;28;20221;-70
2022/11/09 01:06:51;;;;;;;5.37;4.87;;;10.60;41.50;;;;;;10401040;28;20237;-70
2022/11/09 01:11:54;;;;;;;4.90;4.40;;;10.50;40.60;;;;;;10395498;28;20276;-70
2022/11/09 01:16:59;;;;;;;6.27;5.43;;;10.50;40.50;;;;;;10389397;28;20245;-70
2022/11/09 01:22:02;;;;;;;5.20;4.70;;;10.50;40.90;;;;;;10388106;28;20218;-70
2022/11/09 01:27:07;;;;;;;5.30;4.80;;;10.50;40.40;;;;;;10380350;28;20230;-69
2022/11/09 01:32:12;;;;;;;5.53;4.70;;;10.50;40.40;;;;;;10374933;28;20230;-69
2022/11/09 01:37:15;;;;;;;4.20;3.80;;;10.50;40.80;;;;;;10383335;28;20225;-69
2022/11/09 01:42:23;;;;;;;4.73;4.20;;;10.50;40.60;;;;;;10379222;28;20646;-70
2022/11/09 01:47:28;;;;;;;4.43;4.03;;;10.50;41.00;;;;;;10383100;28;20230;-74
2022/11/09 01:52:34;;;;;;;4.87;4.00;;;10.50;40.70;;;;;;10378400;28;20237;-74
2022/11/09 01:57:41;;;;;;;4.87;4.37;;;10.50;40.40;;;;;;10375702;28;20233;-71
2022/11/09 02:02:51;;;;;;;5.03;4.30;;;10.40;40.40;;;;;;10380939;28;20599;-71
2022/11/09 02:07:56;;;;;;;5.00;4.50;;;10.30;40.50;;;;;;10387555;28;20264;-71
2022/11/09 02:13:00;;;;;;;4.43;4.10;;;10.30;40.20;;;;;;10382844;28;20234;-71
2022/11/09 02:18:06;;;;;;;4.97;4.40;;;10.20;40.20;;;;;;10383086;28;20227;-71
2022/11/09 02:23:10;;;;;;;4.80;3.90;;;10.20;40.60;;;;;;10384686;28;20725;-71
2022/11/09 02:28:15;;;;;;;4.43;4.03;;;10.20;40.60;;;;;;10382683;28;20225;-73
2022/11/09 02:33:18;;;;;;;4.37;4.00;;;10.10;40.40;;;;;;10386937;28;20237;-73
2022/11/09 02:38:23;;;;;;;4.47;3.73;;;10.00;40.30;;;;;;10388550;28;20239;-73
2022/11/09 02:43:26;;;;;;;4.10;3.67;;;10.00;40.70;;;;;;10382891;28;20240;-74
2022/11/09 02:48:29;;;;;;;5.23;4.10;;;9.90;41.60;;;;;;10386550;28;20228;-73
2022/11/09 02:53:34;;;;;;;4.73;4.17;;;9.90;41.70;;;;;;10381096;28;20703;-73
2022/11/09 02:58:37;;;;;;;4.63;4.20;;;9.90;41.90;;;;;;10390531;28;20229;-74
2022/11/09 03:03:40;;;;;;;4.17;3.63;;;9.90;41.70;;;;;;10381432;28;20237;-69
2022/11/09 03:08:45;;;;;;;5.10;4.60;;;9.90;41.90;;;;;;10381228;28;20272;-70
2022/11/09 03:13:48;;;;;;;4.90;4.37;;;9.80;42.00;;;;;;10385043;28;20918;-73
2022/11/09 03:18:52;;;;;;;7.83;5.67;;;9.80;41.90;;;;;;10382503;28;20230;-74
2022/11/09 03:23:56;;;;;;;5.73;4.93;;;9.80;42.00;;;;;;10389397;28;20236;-70
2022/11/09 03:28:59;;;;;;;4.77;4.30;;;9.80;42.20;;;;;;10404051;28;20238;-70
2022/11/09 03:34:02;;;;;;;6.00;4.90;;;9.80;42.10;;;;;;10405984;28;20222;-70
2022/11/09 03:39:10;;;;;;;5.23;3.87;;;9.80;42.10;;;;;;10394336;28;20236;-70
2022/11/09 03:44:13;;;;;;;4.50;3.77;;;9.80;42.20;;;;;;10392064;28;20229;-70
2022/11/09 03:49:16;;;;;;;4.40;3.57;;;9.80;41.90;;;;;;10398482;28;20288;-70
2022/11/09 03:54:21;;;;;;;4.40;4.00;;;9.80;41.90;;;;;;10400752;28;20802;-74
2022/11/09 03:59:24;;;;;;;4.17;3.77;;;9.70;42.00;;;;;;10377953;28;20618;-74
2022/11/09 04:04:27;;;;;;;4.17;3.77;;;9.70;41.80;;;;;;10389069;28;20732;-74
2022/11/09 04:09:31;;;;;;;4.23;3.93;;;9.70;42.00;;;;;;10379595;28;20230;-73
2022/11/09 04:14:34;;;;;;;5.47;4.40;;;9.70;42.20;;;;;;10383039;28;20230;-74
2022/11/09 04:19:38;;;;;;;3.50;3.20;;;9.70;42.20;;;;;;10384573;28;20702;-73
2022/11/09 04:24:42;;;;;;;3.50;3.20;;;9.70;42.20;;;;;;10378036;28;20223;-70
2022/11/09 04:29:45;;;;;;;3.40;3.10;;;9.80;42.40;;;;;;10377611;28;20222;-70
2022/11/09 04:34:48;;;;;;;3.70;3.40;;;9.80;42.10;;;;;;10378923;28;20245;-69
2022/11/09 04:39:53;;;;;;;3.57;3.30;;;9.70;42.20;;;;;;10379985;28;20226;-71
2022/11/09 04:44:56;;;;;;;4.43;3.87;;;9.70;42.40;;;;;;10373887;28;20233;-71
2022/11/09 04:49:59;;;;;;;3.87;3.50;;;9.70;42.30;;;;;;10378076;28;20230;-69
2022/11/09 04:55:05;;;;;;;3.63;3.33;;;9.70;42.20;;;;;;10381376;28;20226;-70
2022/11/09 05:00:10;;;;;;;5.07;3.70;;;9.70;42.40;;;;;;10369238;28;20221;-70
2022/11/09 05:05:14;;;;;;;4.47;3.50;;;9.70;42.40;;;;;;10377885;28;20253;-71
2022/11/09 05:10:18;;;;;;;4.00;3.60;;;9.60;42.20;;;;;;10376958;28;20221;-71
2022/11/09 05:15:21;;;;;;;4.43;3.63;;;9.60;42.30;;;;;;10377245;28;20240;-70
2022/11/09 05:20:25;;;;;;;4.53;3.90;;;9.60;42.00;;;;;;10382047;28;20233;-70
2022/11/09 05:25:29;;;;;;;4.13;3.73;;;9.60;42.00;;;;;;10377888;28;20319;-69
2022/11/09 05:30:32;;;;;;;4.07;3.60;;;9.50;42.10;;;;;;10375191;28;20247;-71
2022/11/09 05:35:35;;;;;;;4.73;3.97;;;9.40;42.20;;;;;;10376018;28;20232;-71
2022/11/09 05:40:40;;;;;;;4.53;4.13;;;9.30;42.50;;;;;;10382651;28;20233;-70
2022/11/09 05:45:43;;;;;;;4.13;3.70;;;9.30;42.90;;;;;;10384627;28;20233;-74
2022/11/09 05:50:46;;;;;;;6.30;3.80;;;9.30;42.80;;;;;;10383490;28;20225;-74
2022/11/09 05:55:51;;;;;;;4.07;3.70;;;9.30;42.70;;;;;;10385766;28;20225;-73
2022/11/09 06:00:54;;;;;;;4.30;3.90;;;9.30;43.20;;;;;;10392632;28;20232;-69
2022/11/09 06:06:01;;;;;;;5.83;4.23;;;9.30;43.00;;;;;;10412588;28;20647;-69
2022/11/09 06:11:12;;;;;;;7.43;6.53;;;9.30;43.40;;;;;;10401180;28;20350;-69
2022/11/09 06:16:25;;;;;;;6.10;4.70;;;9.20;43.60;;;;;;10399092;28;20658;-69
2022/11/09 06:21:28;;;;;;;4.37;3.90;;;9.20;43.30;;;;;;10392557;28;20232;-70
2022/11/09 06:26:32;;;;;;;6.40;5.10;;;9.20;43.50;;;;;;10386716;28;20271;-70
2022/11/09 06:31:35;;;;;;;4.63;4.23;;;9.20;44.20;;;;;;10390462;28;20284;-69
2022/11/09 06:36:38;;;;;;;5.17;4.37;;;9.30;43.80;;;;;;10389445;28;20234;-71
2022/11/09 06:41:43;;;;;;;4.37;3.97;;;9.30;43.80;;;;;;10374278;28;20222;-71
2022/11/09 06:46:49;;;;;;;5.73;4.70;;;9.30;44.20;;;;;;10365365;28;20663;-71
2022/11/09 06:51:52;;;;;;;5.43;4.93;;;9.20;44.10;;;;;;10375342;28;20226;-71
2022/11/09 06:56:57;;;;;;;5.73;3.93;;;9.30;44.20;;;;;;10377109;28;20230;-71
2022/11/09 07:02:01;;;;;;;4.87;3.93;;;9.30;44.50;;;;;;10372794;28;20226;-71
2022/11/09 07:07:04;;;;;;;4.33;3.63;;;9.30;44.20;;;;;;10377546;28;20232;-71
2022/11/09 07:12:09;;;;;;;6.40;5.53;;;9.30;44.90;;;;;;10384225;28;20241;-71
2022/11/09 07:17:12;;;;;;;6.67;5.40;;;9.40;44.70;;;;;;10366429;28;20601;-71
2022/11/09 07:22:15;;;;;;;6.50;5.87;;;9.40;44.30;;;;;;10366494;28;20237;-71
2022/11/09 07:27:20;;;;;;;5.23;4.20;;;9.40;44.30;;;;;;10361373;28;20230;-71
2022/11/09 07:32:32;;;;;;;5.77;3.60;;;9.50;44.80;;;;;;10368413;28;20236;-71
2022/11/09 07:37:59;;;;;;;4.63;4.13;;;9.50;44.70;;;;;;10371451;28;20856;-71
2022/11/09 07:43:06;;;;;;;4.07;3.73;;;9.60;44.80;;;;;;10377345;28;20691;-71
2022/11/09 07:48:10;;;;;;;3.47;3.17;;;9.70;45.50;;;;;;10375676;28;20722;-71
2022/11/09 07:53:15;;;;;;;5.00;4.53;;;9.90;45.30;;;;;;10378520;28;20325;-71
2022/11/09 07:58:19;;;;;;;4.90;4.37;;;10.10;44.50;;;;;;10379956;28;20706;-71
2022/11/09 08:03:24;;;;;;;4.13;3.67;;;10.20;44.60;;;;;;10373826;28;20233;-71
2022/11/09 08:08:27;;;;;;;4.10;3.70;;;10.40;44.50;;;;;;10379908;28;20237;-71
2022/11/09 08:13:32;;;;;;;4.17;3.77;;;10.60;44.30;;;;;;10382627;28;20561;-71
2022/11/09 08:18:35;;;;;;;3.90;3.60;;;10.70;44.50;;;;;;10380907;28;20271;-71
2022/11/09 08:23:38;;;;;;;3.60;3.30;;;10.80;44.20;;;;;;10380095;28;20234;-71
2022/11/09 08:28:42;;;;;;;5.90;3.47;;;10.90;44.10;;;;;;10379191;28;20292;-71
2022/11/09 08:33:45;;;;;;;3.50;3.20;;;11.00;44.20;;;;;;10376101;28;20234;-71
2022/11/09 08:38:48;;;;;;;3.60;3.30;;;11.10;44.10;;;;;;10377184;28;20233;-71
2022/11/09 08:43:53;;;;;;;3.40;3.03;;;11.30;44.00;;;;;;10376400;28;20238;-72
2022/11/09 08:48:56;;;;;;;3.70;3.33;;;11.40;44.30;;;;;;10380150;28;20222;-72
2022/11/09 08:53:59;;;;;;;4.00;3.60;;;11.50;44.00;;;;;;10379348;28;20271;-69
2022/11/09 08:59:04;;;;;;;4.37;3.97;;;11.60;44.10;;;;;;10375361;28;20237;-70
2022/11/09 09:04:07;;;;;;;6.17;4.00;;;11.70;44.30;;;;;;10377180;28;20907;-69
2022/11/09 09:09:10;;;;;;;5.93;4.00;;;11.70;44.00;;;;;;10374037;28;20225;-69
2022/11/09 09:14:15;;;;;;;4.23;3.83;;;11.80;44.00;;;;;;10379019;28;20242;-69
2022/11/09 09:19:18;;;;;;;4.47;4.07;;;11.90;44.40;;;;;;10377005;28;20226;-68
2022/11/09 09:24:22;;;;;;;4.23;3.83;;;12.00;44.10;;;;;;10374884;28;20245;-74
2022/11/09 09:29:27;;;;;;;4.27;3.87;;;12.10;44.10;;;;;;10376943;28;20234;-68
2022/11/09 09:34:30;;;;;;;5.77;3.80;;;12.20;44.30;;;;;;10379106;28;20233;-68
2022/11/09 09:39:33;;;;;;;7.47;4.00;;;12.30;44.30;;;;;;10377916;28;20229;-68
2022/11/09 09:44:41;;;;;;;4.90;3.83;;;12.50;44.60;;;;;;10373781;28;20318;-71
2022/11/09 09:49:47;;;;;;;4.10;3.50;;;12.70;44.80;;;;;;10378016;28;20995;-71
2022/11/09 09:54:57;;;;;;;5.00;3.63;;;12.90;44.60;;;;;;10376219;28;20604;-71
2022/11/09 10:00:06;;;;;;;3.97;3.47;;;13.10;44.70;;;;;;10375595;28;20221;-71
2022/11/09 10:05:15;;;;;;;4.60;3.27;;;13.30;45.30;;;;;;10377170;28;20218;-69
2022/11/09 10:10:43;;;;;;;4.90;4.13;;;13.40;44.30;;;;;;10381397;28;20238;-69
2022/11/09 10:15:52;;;;;;;3.67;3.10;;;13.60;44.30;;;;;;10376933;28;20236;-69
2022/11/09 10:21:15;;;;;;;3.20;2.90;;;13.80;44.40;;;;;;10376401;28;20233;-71
2022/11/09 10:26:22;;;;;;;3.90;2.93;;;14.00;43.80;;;;;;10387622;28;20726;-71
2022/11/09 10:31:32;;;;;;;4.57;2.80;;;14.30;44.30;;;;;;10381549;28;20222;-70
2022/11/09 10:36:43;;;;;;;4.70;2.80;;;14.50;43.90;;;;;;10381494;28;20733;-71
2022/11/09 10:41:46;;;;;;;3.80;2.90;;;14.80;44.00;;;;;;10383672;28;20223;-70
2022/11/09 10:47:06;;;;;;;3.00;2.70;;;15.00;44.30;;;;;;10381808;28;20305;-71
2022/11/09 10:52:31;;;;;;;3.10;2.53;;;15.30;43.60;;;;;;10348865;28;20898;-71
2022/11/09 10:57:34;;;;;;;3.60;2.70;;;15.40;42.90;;;;;;10343921;28;20227;-68
2022/11/09 11:02:48;;;;;;;3.33;2.47;;;15.60;43.90;;;;;;10354289;28;20243;-68
2022/11/09 11:07:52;;;;;;;4.10;2.20;;;15.80;43.30;;;;;;10382284;28;20944;-67
2022/11/09 11:13:21;;;;;;;1.90;1.80;;;16.10;44.20;;;;;;10387699;28;20218;-68
2022/11/09 11:18:27;;;;;;;3.40;1.87;;;16.20;44.00;;;;;;10379853;28;20226;-69
2022/11/09 11:23:31;;;;;;;1.50;1.40;;;16.50;44.30;;;;;;10379740;28;20229;-68
2022/11/09 11:28:40;;;;;;;1.70;1.50;;;16.60;43.70;;;;;;10377498;28;20221;-71
2022/11/09 11:33:45;;;;;;;1.60;1.50;;;16.70;43.20;;;;;;10380674;28;20233;-69
2022/11/09 11:38:56;;;;;;;1.60;1.50;;;16.80;43.00;;;;;;10383382;28;20628;-70
2022/11/09 11:44:11;;;;;;;2.77;1.70;;;16.90;42.70;;;;;;10380332;28;20234;-71
2022/11/09 11:49:43;;;;;;;1.50;1.40;;;17.00;42.60;;;;;;10380546;28;20287;-71
2022/11/09 11:55:06;;;;;;;1.60;1.50;;;17.00;42.60;;;;;;10377623;28;20714;-73
2022/11/09 12:00:13;;;;;;;1.83;1.73;;;17.10;42.20;;;;;;10372986;28;20222;-67
2022/11/09 12:06:08;;;;;;;1.60;1.50;;;17.20;42.20;;;;;;10380484;28;20288;-68
2022/11/09 12:11:20;;;;;;;1.87;1.63;;;17.20;42.40;;;;;;10373666;28;20577;-68
2022/11/09 12:16:31;;;;;;;2.10;1.93;;;17.20;42.20;;;;;;10380214;28;20781;-68
2022/11/09 12:21:40;;;;;;;2.07;1.90;;;17.20;42.20;;;;;;10379722;28;20898;-67
2022/11/09 12:26:58;;;;;;;2.90;2.70;;;17.30;42.20;;;;;;10379179;28;20255;-67
2022/11/09 12:32:34;;;;;;;2.20;2.10;;;17.30;42.30;;;;;;10372403;28;20230;-68
2022/11/09 12:37:44;;;;;;;2.20;2.00;;;17.30;41.80;;;;;;10375362;28;20232;-66
2022/11/09 12:42:51;;;;;;;2.03;1.77;;;17.40;42.00;;;;;;10373132;28;20234;-67
2022/11/09 12:47:58;;;;;;;2.20;2.00;;;17.40;42.20;;;;;;10378268;28;20233;-67
2022/11/09 12:53:04;;;;;;;1.90;1.53;;;17.40;42.30;;;;;;10372762;28;20222;-67
2022/11/09 12:58:07;;;;;;;3.20;1.90;;;17.50;42.00;;;;;;10373746;28;20233;-67
2022/11/09 13:03:22;;;;;;;3.80;2.00;;;17.50;42.10;;;;;;10375072;28;20234;-67
2022/11/09 13:08:29;;;;;;;2.20;1.97;;;17.60;41.40;;;;;;10379656;28;20229;-68
2022/11/09 13:13:32;;;;;;;3.00;2.00;;;17.60;41.60;;;;;;10374325;28;20237;-67
2022/11/09 13:18:51;;;;;;;2.10;1.90;;;17.60;41.90;;;;;;10377661;28;20804;-68
2022/11/09 13:23:56;;;;;;;2.20;1.90;;;17.60;41.10;;;;;;10382051;28;20225;-74
2022/11/09 13:29:21;;;;;;;1.87;1.77;;;17.70;41.20;;;;;;10375418;28;20313;-74
2022/11/09 13:34:45;;;;;;;2.20;2.00;;;17.70;41.20;;;;;;10374944;28;20230;-74
2022/11/09 13:39:49;;;;;;;2.20;2.00;;;17.60;41.10;;;;;;10376868;28;20233;-74
2022/11/09 13:44:53;;;;;;;2.40;2.20;;;17.70;41.40;;;;;;10376400;28;20233;-74
2022/11/09 13:49:57;;;;;;;2.03;1.93;;;17.60;41.30;;;;;;10373820;28;21250;-68
2022/11/09 13:55:03;;;;;;;2.80;2.23;;;17.60;41.10;;;;;;10373529;28;20234;-70
2022/11/09 14:00:17;;;;;;;3.97;2.30;;;17.60;40.60;;;;;;10388947;28;20287;-74
2022/11/09 14:05:28;;;;;;;2.87;2.40;;;17.50;40.70;;;;;;10387780;28;20229;-69
2022/11/09 14:10:45;;;;;;;2.10;1.90;;;17.50;40.30;;;;;;10384614;28;20236;-69
2022/11/09 14:15:55;;;;;;;3.60;3.30;;;17.40;40.40;;;;;;10382441;28;20287;-71
2022/11/09 14:21:07;;;;;;;4.97;4.53;;;17.40;40.30;;;;;;10379256;28;20228;-71
2022/11/09 14:26:18;;;;;;;5.00;4.60;;;17.40;40.20;;;;;;10386156;28;20226;-70
2022/11/09 14:31:23;;;;;;;4.70;3.60;;;17.40;40.40;;;;;;10387200;28;20256;-71
2022/11/09 14:36:27;;;;;;;3.97;3.53;;;17.40;40.90;;;;;;10379216;28;20240;-71
2022/11/09 14:41:32;;;;;;;9.43;7.93;;;17.40;40.80;;;;;;10382716;28;20230;-71
2022/11/09 14:46:36;;;;;;;6.93;6.23;;;17.40;40.70;;;;;;10381640;28;20225;-71
2022/11/09 14:51:40;;;;;;;6.30;5.37;;;17.40;40.90;;;;;;10378315;28;20714;-71
2022/11/09 14:56:45;;;;;;;4.80;4.20;;;17.40;40.80;;;;;;10382869;28;20775;-71
2022/11/09 15:02:00;;;;;;;3.60;3.30;;;17.40;41.10;;;;;;10382876;28;20276;-70
2022/11/09 15:07:04;;;;;;;4.97;4.53;;;17.30;41.90;;;;;;10373551;28;20218;-71
2022/11/09 15:12:15;;;;;;;4.67;4.23;;;17.30;41.10;;;;;;10382471;28;20230;-71
2022/11/09 15:17:22;;;;;;;5.80;5.27;;;17.30;41.00;;;;;;10376986;28;20284;-69
2022/11/09 15:22:50;;;;;;;3.50;3.20;;;17.30;41.00;;;;;;10377827;28;20236;-66
2022/11/09 15:28:13;;;;;;;5.10;3.70;;;17.30;42.70;;;;;;10377732;28;20218;-69
2022/11/09 15:33:23;;;;;;;7.77;4.93;;;17.30;41.50;;;;;;10378944;28;20225;-70
2022/11/09 15:38:33;;;;;;;7.33;4.83;;;17.30;41.10;;;;;;10381756;28;20229;-69
2022/11/09 15:43:37;;;;;;;8.67;5.57;;;17.20;41.00;;;;;;10377398;28;20226;-69
2022/11/09 15:48:43;;;;;;;7.37;6.33;;;17.20;41.20;;;;;;10381396;28;20597;-69
2022/11/09 15:53:48;;;;;;;7.97;6.20;;;17.10;41.20;;;;;;10376645;28;20624;-74
2022/11/09 15:58:52;;;;;;;25.00;21.40;;;17.10;41.30;;;;;;10377552;28;20277;-74
2022/11/09 16:03:56;;;;;;;26.70;22.00;;;17.00;41.20;;;;;;10370589;28;20288;-68
2022/11/09 16:08:59;;;;;;;21.33;16.83;;;17.00;41.30;;;;;;10368850;28;20230;-68
2022/11/09 16:14:04;;;;;;;10.03;9.03;;;16.90;41.30;;;;;;10364412;28;20234;-69
2022/11/09 16:19:07;;;;;;;6.23;5.43;;;16.90;41.30;;;;;;10364007;28;20717;-69
2022/11/09 16:24:10;;;;;;;5.93;5.30;;;16.90;41.40;;;;;;10364783;28;20234;-69
2022/11/09 16:29:14;;;;;;;7.70;6.03;;;16.80;41.40;;;;;;10371119;28;20229;-74
2022/11/09 16:34:18;;;;;;;8.97;7.93;;;16.70;41.30;;;;;;10373932;28;20235;-69
2022/11/09 16:39:21;;;;;;;11.00;7.70;;;16.70;41.50;;;;;;10373530;28;20272;-69
2022/11/09 16:44:31;;;;;;;7.33;6.43;;;16.60;41.70;;;;;;10369180;28;20237;-77
2022/11/09 16:49:34;;;;;;;7.57;5.10;;;16.60;41.90;;;;;;10378731;28;20577;-75
2022/11/09 16:54:37;;;;;;;6.13;4.80;;;16.50;41.90;;;;;;10375004;28;20264;-75
2022/11/09 16:59:42;;;;;;;5.77;5.23;;;16.50;42.00;;;;;;10379326;28;20294;-75
2022/11/09 17:04:45;;;;;;;7.07;5.40;;;16.60;42.20;;;;;;10376823;28;20236;-70
2022/11/09 17:09:48;;;;;;;6.07;5.47;;;16.50;42.10;;;;;;10378228;28;20713;-70
2022/11/09 17:14:52;;;;;;;6.43;5.10;;;16.60;42.20;;;;;;10376238;28;20260;-70
2022/11/09 17:19:55;;;;;;;5.07;4.60;;;16.60;42.30;;;;;;10378731;28;20718;-70
2022/11/09 17:24:58;;;;;;;5.87;5.27;;;16.60;42.20;;;;;;10373374;28;20272;-70
2022/11/09 17:30:03;;;;;;;5.37;4.70;;;16.60;42.20;;;;;;10374477;28;20230;-70
2022/11/09 17:35:07;;;;;;;5.87;4.70;;;16.60;42.30;;;;;;10372075;28;20230;-70
2022/11/09 17:40:11;;;;;;;6.57;4.60;;;16.60;42.20;;;;;;10374405;28;20222;-70
2022/11/09 17:45:15;;;;;;;6.23;4.83;;;16.60;42.20;;;;;;10376307;28;20287;-70
2022/11/09 17:50:20;;;;;;;7.73;5.77;;;16.50;42.20;;;;;;10373605;28;20237;-71
2022/11/09 17:55:23;;;;;;;8.60;6.30;;;16.50;42.10;;;;;;10374084;28;20233;-71
2022/11/09 18:00:27;;;;;;;8.17;7.13;;;16.60;42.30;;;;;;10373599;28;20229;-71
2022/11/09 18:05:30;;;;;;;6.40;5.80;;;16.50;42.60;;;;;;10378375;28;20225;-71
2022/11/09 18:10:33;;;;;;;6.73;6.00;;;16.40;42.50;;;;;;10382710;28;20230;-71
2022/11/09 18:15:39;;;;;;;7.93;5.93;;;16.30;42.60;;;;;;10377030;28;20234;-71
2022/11/09 18:20:42;;;;;;;6.77;6.13;;;16.20;43.10;;;;;;10376466;28;20245;-74
2022/11/09 18:25:56;;;;;;;7.50;6.80;;;16.10;43.00;;;;;;10377113;28;20230;-75
2022/11/09 18:31:05;;;;;;;10.53;9.63;;;16.00;43.90;;;;;;10379033;28;20643;-72
2022/11/09 18:36:11;;;;;;;7.77;7.07;;;16.00;44.30;;;;;;10379135;28;20234;-72
2022/11/09 18:41:16;;;;;;;8.27;7.57;;;15.90;43.90;;;;;;10374686;28;20592;-72
2022/11/09 18:46:21;;;;;;;7.97;7.17;;;15.80;44.10;;;;;;10379311;28;20230;-71
2022/11/09 18:51:24;;;;;;;7.23;6.53;;;15.80;44.70;;;;;;10385405;28;20242;-71
2022/11/09 18:56:28;;;;;;;7.17;5.97;;;15.70;44.20;;;;;;10386505;28;20225;-71
2022/11/09 19:01:32;;;;;;;6.60;6.00;;;15.60;44.40;;;;;;10386158;28;20233;-71
2022/11/09 19:06:35;;;;;;;7.73;6.80;;;15.60;45.60;;;;;;10384286;28;20230;-71
2022/11/09 19:11:39;;;;;;;7.97;7.20;;;15.50;44.80;;;;;;10381462;28;21732;-71
2022/11/09 19:16:44;;;;;;;6.90;6.20;;;15.50;44.80;;;;;;10395402;28;20237;-70
2022/11/09 19:21:48;;;;;;;6.60;6.03;;;15.40;45.10;;;;;;10382652;28;20226;-70
2022/11/09 19:26:54;;;;;;;6.93;5.70;;;15.40;45.20;;;;;;10381623;28;20603;-74
2022/11/09 19:31:59;;;;;;;5.50;5.00;;;15.40;45.00;;;;;;10384174;28;20240;-71
2022/11/09 19:37:02;;;;;;;4.67;4.13;;;15.30;45.80;;;;;;10382258;28;20228;-72
2022/11/09 19:42:05;;;;;;;3.90;3.60;;;15.30;45.60;;;;;;10381426;28;20226;-71
2022/11/09 19:47:10;;;;;;;4.60;4.20;;;15.30;45.90;;;;;;10377948;28;20233;-72
2022/11/09 19:52:13;;;;;;;3.70;3.37;;;15.30;46.50;;;;;;10379637;28;20237;-71
2022/11/09 19:57:16;;;;;;;3.60;3.30;;;15.30;46.20;;;;;;10381338;28;20225;-71
2022/11/09 20:02:21;;;;;;;3.50;2.83;;;15.30;46.20;;;;;;10378366;28;20230;-70
2022/11/09 20:07:24;;;;;;;3.00;2.50;;;15.30;46.90;;;;;;10384834;28;20229;-69
2022/11/09 20:17:49;;;;;;;2.33;2.10;;;15.30;46.30;;;;;;10401881;28;20224;-70
2022/11/09 20:22:52;;;;;;;2.40;2.20;;;15.30;46.90;;;;;;10374392;28;20299;-72
2022/11/09 20:27:55;;;;;;;3.13;2.87;;;15.40;46.60;;;;;;10379551;28;20229;-72
2022/11/09 20:33:00;;;;;;;2.60;2.40;;;15.40;46.50;;;;;;10377900;28;20229;-72
2022/11/09 20:38:03;;;;;;;2.37;2.17;;;15.40;47.10;;;;;;10375418;28;20218;-71
2022/11/09 20:43:07;;;;;;;2.47;2.27;;;15.40;46.50;;;;;;10380048;28;20230;-71
2022/11/09 20:48:12;;;;;;;2.60;2.40;;;15.40;46.60;;;;;;10380212;28;20233;-71
2022/11/09 20:53:36;;;;;;;2.50;2.30;;;15.40;47.10;;;;;;10370558;28;20292;-71
2022/11/09 20:58:39;;;;;;;2.70;2.50;;;15.40;46.70;;;;;;10371743;28;20257;-75
2022/11/09 21:03:44;;;;;;;4.47;2.53;;;15.40;46.50;;;;;;10372959;28;20723;-73
2022/11/09 21:08:49;;;;;;;2.83;2.63;;;15.40;46.90;;;;;;10378989;28;20698;-73
2022/11/09 21:13:53;;;;;;;2.60;2.40;;;15.40;46.80;;;;;;10380455;28;20222;-73
2022/11/09 21:18:58;;;;;;;3.17;2.97;;;15.40;46.90;;;;;;10376957;28;20222;-73
2022/11/09 21:34:46;;;;;;;3.90;3.60;;;15.30;47.80;;;;;;10372466;28;20226;-74
2022/11/09 21:39:49;;;;;;;4.00;3.70;;;15.30;47.30;;;;;;10378442;28;20225;-69
2022/11/09 21:44:52;;;;;;;4.37;3.97;;;15.30;46.90;;;;;;10377682;28;20226;-73
2022/11/09 21:49:57;;;;;;;4.60;4.20;;;15.30;47.10;;;;;;10373347;28;20227;-70
2022/11/09 21:55:00;;;;;;;4.57;4.17;;;15.20;47.50;;;;;;10372114;28;20230;-70
2022/11/09 22:00:04;;;;;;;5.07;4.63;;;15.30;47.10;;;;;;10371226;28;20276;-70
2022/11/09 22:05:09;;;;;;;4.90;4.50;;;15.30;47.30;;;;;;10373537;28;20581;-71
2022/11/09 22:10:12;;;;;;;5.57;5.17;;;15.30;47.70;;;;;;10372169;28;20230;-70
2022/11/09 22:20:56;;;;;;;5.07;4.67;;;15.30;47.30;;;;;;10378177;28;20693;-70
2022/11/09 22:26:01;;;;;;;5.30;4.90;;;15.30;47.70;;;;;;10380808;28;20248;-70
2022/11/09 22:31:06;;;;;;;5.07;4.67;;;15.30;47.90;;;;;;10382441;28;20735;-70
2022/11/09 22:36:13;;;;;;;5.93;5.53;;;15.30;47.40;;;;;;10389592;28;20226;-70
2022/11/09 22:41:16;;;;;;;6.17;5.67;;;15.30;48.00;;;;;;10382560;28;20226;-70
2022/11/09 22:46:19;;;;;;;6.20;5.67;;;15.30;47.20;;;;;;10388234;28;20233;-70
2022/11/09 22:51:24;;;;;;;6.90;6.30;;;15.30;47.20;;;;;;10383284;28;20249;-70
2022/11/09 22:56:27;;;;;;;6.63;6.17;;;15.30;47.80;;;;;;10385852;28;20802;-70
2022/11/09 23:01:30;;;;;;;6.57;6.07;;;15.20;47.40;;;;;;10382215;28;20313;-70
2022/11/09 23:06:35;;;;;;;7.07;6.50;;;15.20;47.50;;;;;;10391650;28;20705;-70
2022/11/09 23:11:38;;;;;;;6.73;6.23;;;15.20;48.00;;;;;;10388485;28;20237;-70
2022/11/09 23:16:41;;;;;;;6.47;5.97;;;15.20;47.60;;;;;;10390178;28;20230;-70
2022/11/09 23:21:46;;;;;;;6.63;6.13;;;15.10;47.60;;;;;;10385191;28;20222;-70
2022/11/09 23:26:49;;;;;;;6.63;6.03;;;15.10;48.20;;;;;;10387200;28;20233;-70
2022/11/09 23:31:52;;;;;;;6.50;6.00;;;15.10;47.80;;;;;;10382993;28;21151;-70
2022/11/09 23:36:56;;;;;;;6.23;5.63;;;15.10;48.00;;;;;;10392067;28;20830;-73
2022/11/09 23:42:00;;;;;;;6.50;6.00;;;15.10;48.50;;;;;;10388528;28;20226;-73
2022/11/09 23:47:03;;;;;;;6.47;5.97;;;15.10;48.00;;;;;;10385825;28;20221;-70
2022/11/09 23:52:08;;;;;;;6.27;5.83;;;15.20;48.70;;;;;;10379584;28;20234;-70
2022/11/09 23:57:11;;;;;;;6.27;5.60;;;15.20;48.30;;;;;;10378781;28;20236;-70
